Malindi Airport

Airport
ICAO code: 
HKML
IATA Code: 
MYD
Summary
ICAO Region: 
AFI
Territory: 
Location: 
Malindi, Kilifi County
Serving: 
Malindi
Elevation: 
80 ft
Coordinates: 
Aerial View: 
3° 13' 23.268" S, 40° 6' 1.296" E
Metar
Observation
HKML 211000Z 09010KT 9999 FEW021 BKN250 31/23 Q1011
Station
Malindi
Date/Time
2022-01-21 10:00:00
Wind direction
90°
Wind speed
10 kts
Lowest cloud amount
few clouds
Temperature
31°C
Dew point
23°C
Humidity
62%
QNH
1011 hPa
Weather condition
n/a

Malindi Airport is located west of the central business district of the town of Malindi, in Kilifi County, in southeastern Kenya, at the Indian Ocean coast.

Climatology

Tropical Savannah climate (Köppen climate classification Aw)

Runways

Designator Length Width Surface Rops
8/26 1128 0 UNK No/No
17/35 1402 0 UNK No/No
Airport map: 
Aerial View: 

SKYbrary Partners:

Safety knowledge contributed by: